sensor_id;sensor_type;location;lat;lon;timestamp;pressure;altitude;pressure_sealevel;temperature;humidity
78986;BME280;68384;55.750;48.746;2023-09-30T00:01:28;99768.91;;;10.15;72.21
78986;BME280;68384;55.750;48.746;2023-09-30T00:03:56;99775.94;;;10.19;71.98
78986;BME280;68384;55.750;48.746;2023-09-30T00:06:24;99773.41;;;10.21;71.66
78986;BME280;68384;55.750;48.746;2023-09-30T00:08:51;99773.50;;;10.24;71.71
78986;BME280;68384;55.750;48.746;2023-09-30T00:11:19;99773.56;;;10.25;71.59
78986;BME280;68384;55.750;48.746;2023-09-30T00:13:46;99770.97;;;10.25;71.51
78986;BME280;68384;55.750;48.746;2023-09-30T00:16:13;99775.97;;;10.21;71.52
78986;BME280;68384;55.750;48.746;2023-09-30T00:18:41;99777.59;;;10.17;71.78
78986;BME280;68384;55.750;48.746;2023-09-30T00:21:08;99772.22;;;10.11;71.78
78986;BME280;68384;55.750;48.746;2023-09-30T00:23:35;99772.84;;;10.04;72.16
78986;BME280;68384;55.750;48.746;2023-09-30T00:26:03;99776.06;;;9.97;72.29
78986;BME280;68384;55.750;48.746;2023-09-30T00:28:30;99775.84;;;9.91;72.61
78986;BME280;68384;55.750;48.746;2023-09-30T00:30:57;99773.13;;;9.87;72.73
78986;BME280;68384;55.750;48.746;2023-09-30T00:33:25;99773.91;;;9.84;72.96
78986;BME280;68384;55.750;48.746;2023-09-30T00:35:52;99773.72;;;9.80;72.86
78986;BME280;68384;55.750;48.746;2023-09-30T00:38:19;99776.28;;;9.78;73.26
78986;BME280;68384;55.750;48.746;2023-09-30T00:40:48;99784.88;;;9.77;73.47
78986;BME280;68384;55.750;48.746;2023-09-30T00:43:20;99771.81;;;9.74;73.76
78986;BME280;68384;55.750;48.746;2023-09-30T00:46:17;99781.25;;;9.72;74.06
78986;BME280;68384;55.750;48.746;2023-09-30T00:48:50;99778.53;;;9.69;74.07
78986;BME280;68384;55.750;48.746;2023-09-30T00:51:17;99778.44;;;9.66;74.47
78986;BME280;68384;55.750;48.746;2023-09-30T00:53:45;99783.72;;;9.69;74.35
78986;BME280;68384;55.750;48.746;2023-09-30T00:56:12;99781.19;;;9.70;74.15
78986;BME280;68384;55.750;48.746;2023-09-30T01:03:16;99781.50;;;9.80;74.25
78986;BME280;68384;55.750;48.746;2023-09-30T01:05:45;99793.66;;;9.82;74.09
78986;BME280;68384;55.750;48.746;2023-09-30T01:08:12;99787.78;;;9.86;73.81
78986;BME280;68384;55.750;48.746;2023-09-30T01:10:39;99792.06;;;9.86;73.86
78986;BME280;68384;55.750;48.746;2023-09-30T01:13:06;99788.66;;;9.87;73.24
78986;BME280;68384;55.750;48.746;2023-09-30T01:15:34;99792.94;;;9.86;74.13
78986;BME280;68384;55.750;48.746;2023-09-30T01:18:01;99805.00;;;9.86;74.35
78986;BME280;68384;55.750;48.746;2023-09-30T01:20:28;99805.91;;;9.86;74.66
78986;BME280;68384;55.750;48.746;2023-09-30T01:22:57;99812.63;;;9.81;75.20
78986;BME280;68384;55.750;48.746;2023-09-30T01:25:24;99803.97;;;9.81;76.04
78986;BME280;68384;55.750;48.746;2023-09-30T01:27:51;99802.97;;;9.77;76.14
78986;BME280;68384;55.750;48.746;2023-09-30T01:30:19;99807.19;;;9.74;76.08
78986;BME280;68384;55.750;48.746;2023-09-30T01:32:46;99801.84;;;9.69;76.14
78986;BME280;68384;55.750;48.746;2023-09-30T01:35:15;99799.25;;;9.69;75.87
78986;BME280;68384;55.750;48.746;2023-09-30T01:37:42;99804.53;;;9.72;75.98
78986;BME280;68384;55.750;48.746;2023-09-30T01:40:10;99810.50;;;9.69;75.82
78986;BME280;68384;55.750;48.746;2023-09-30T01:42:37;99803.63;;;9.70;75.81
78986;BME280;68384;55.750;48.746;2023-09-30T01:45:06;99801.03;;;9.70;76.01
78986;BME280;68384;55.750;48.746;2023-09-30T01:47:33;99805.19;;;9.66;76.48
78986;BME280;68384;55.750;48.746;2023-09-30T01:50:00;99821.47;;;9.62;76.50
78986;BME280;68384;55.750;48.746;2023-09-30T01:52:28;99816.84;;;9.54;77.03
78986;BME280;68384;55.750;48.746;2023-09-30T01:54:56;99820.78;;;9.44;77.65
78986;BME280;68384;55.750;48.746;2023-09-30T01:57:23;99824.88;;;9.38;77.96
78986;BME280;68384;55.750;48.746;2023-09-30T01:59:50;99814.34;;;9.33;77.81
78986;BME280;68384;55.750;48.746;2023-09-30T02:02:18;99813.06;;;9.22;78.38
78986;BME280;68384;55.750;48.746;2023-09-30T02:04:46;99824.19;;;9.20;78.63
78986;BME280;68384;55.750;48.746;2023-09-30T02:07:14;99826.56;;;9.14;79.12
78986;BME280;68384;55.750;48.746;2023-09-30T02:09:41;99820.28;;;9.08;78.20
78986;BME280;68384;55.750;48.746;2023-09-30T02:12:09;99823.59;;;9.04;78.68
78986;BME280;68384;55.750;48.746;2023-09-30T02:14:37;99817.41;;;9.01;78.92
78986;BME280;68384;55.750;48.746;2023-09-30T02:17:05;99826.81;;;8.99;79.18
78986;BME280;68384;55.750;48.746;2023-09-30T02:19:33;99823.19;;;8.94;79.14
78986;BME280;68384;55.750;48.746;2023-09-30T02:22:01;99824.00;;;8.93;79.29
78986;BME280;68384;55.750;48.746;2023-09-30T02:24:28;99816.00;;;8.87;79.51
78986;BME280;68384;55.750;48.746;2023-09-30T02:26:55;99814.38;;;8.89;79.45
78986;BME280;68384;55.750;48.746;2023-09-30T02:29:22;99819.59;;;8.90;79.11
78986;BME280;68384;55.750;48.746;2023-09-30T02:31:50;99818.78;;;8.91;79.49
78986;BME280;68384;55.750;48.746;2023-09-30T02:34:18;99816.19;;;8.91;79.44
78986;BME280;68384;55.750;48.746;2023-09-30T02:36:45;99817.81;;;8.89;79.36
78986;BME280;68384;55.750;48.746;2023-09-30T02:39:12;99824.66;;;8.87;79.33
78986;BME280;68384;55.750;48.746;2023-09-30T02:41:39;99827.22;;;8.87;79.58
78986;BME280;68384;55.750;48.746;2023-09-30T02:44:06;99828.94;;;8.87;79.38
78986;BME280;68384;55.750;48.746;2023-09-30T02:46:34;99823.72;;;8.85;79.41
78986;BME280;68384;55.750;48.746;2023-09-30T02:49:02;99828.00;;;8.85;79.27
78986;BME280;68384;55.750;48.746;2023-09-30T02:51:30;99827.06;;;8.83;79.53
78986;BME280;68384;55.750;48.746;2023-09-30T02:53:59;99830.53;;;8.83;79.62
78986;BME280;68384;55.750;48.746;2023-09-30T02:56:26;99828.81;;;8.84;79.66
78986;BME280;68384;55.750;48.746;2023-09-30T02:58:55;99827.81;;;8.80;79.76
78986;BME280;68384;55.750;48.746;2023-09-30T03:01:22;99830.47;;;8.82;80.02
78986;BME280;68384;55.750;48.746;2023-09-30T03:03:49;99826.13;;;8.81;80.15
78986;BME280;68384;55.750;48.746;2023-09-30T03:06:17;99820.88;;;8.79;80.21
78986;BME280;68384;55.750;48.746;2023-09-30T03:08:45;99826.88;;;8.78;80.01
78986;BME280;68384;55.750;48.746;2023-09-30T03:11:13;99819.94;;;8.77;80.33
78986;BME280;68384;55.750;48.746;2023-09-30T03:13:41;99832.91;;;8.79;80.34
78986;BME280;68384;55.750;48.746;2023-09-30T03:16:09;99830.41;;;8.80;80.19
78986;BME280;68384;55.750;48.746;2023-09-30T03:18:36;99827.06;;;8.83;80.14
78986;BME280;68384;55.750;48.746;2023-09-30T03:21:13;99833.22;;;8.86;79.81
78986;BME280;68384;55.750;48.746;2023-09-30T03:23:41;99834.28;;;8.91;79.80
78986;BME280;68384;55.750;48.746;2023-09-30T03:26:08;99829.25;;;8.94;79.68
78986;BME280;68384;55.750;48.746;2023-09-30T03:28:37;99841.50;;;9.00;79.27
78986;BME280;68384;55.750;48.746;2023-09-30T03:31:05;99833.84;;;9.03;79.23
78986;BME280;68384;55.750;48.746;2023-09-30T03:33:34;99837.41;;;9.05;78.95
78986;BME280;68384;55.750;48.746;2023-09-30T03:36:02;99833.97;;;9.06;79.06
78986;BME280;68384;55.750;48.746;2023-09-30T03:38:30;99831.47;;;9.07;79.45
78986;BME280;68384;55.750;48.746;2023-09-30T03:40:59;99835.88;;;9.10;79.97
78986;BME280;68384;55.750;48.746;2023-09-30T03:43:27;99832.59;;;9.14;80.58
78986;BME280;68384;55.750;48.746;2023-09-30T03:45:54;99835.25;;;9.16;80.81
78986;BME280;68384;55.750;48.746;2023-09-30T03:48:22;99830.19;;;9.19;80.04
78986;BME280;68384;55.750;48.746;2023-09-30T03:50:49;99832.94;;;9.23;79.69
78986;BME280;68384;55.750;48.746;2023-09-30T03:53:19;99830.63;;;9.31;79.44
78986;BME280;68384;55.750;48.746;2023-09-30T03:55:46;99828.31;;;9.38;79.14
78986;BME280;68384;55.750;48.746;2023-09-30T03:58:14;99832.28;;;9.52;78.74
78986;BME280;68384;55.750;48.746;2023-09-30T04:00:42;99828.47;;;9.65;78.10
78986;BME280;68384;55.750;48.746;2023-09-30T04:03:09;99832.31;;;9.76;77.63
78986;BME280;68384;55.750;48.746;2023-09-30T04:05:37;99823.28;;;9.90;77.12
78986;BME280;68384;55.750;48.746;2023-09-30T04:08:04;99831.47;;;10.02;76.94
78986;BME280;68384;55.750;48.746;2023-09-30T04:10:32;99827.66;;;10.16;76.38
78986;BME280;68384;55.750;48.746;2023-09-30T04:12:59;99826.34;;;10.29;76.33
78986;BME280;68384;55.750;48.746;2023-09-30T04:15:26;99829.25;;;10.38;75.73
78986;BME280;68384;55.750;48.746;2023-09-30T04:17:53;99827.91;;;10.51;75.04
78986;BME280;68384;55.750;48.746;2023-09-30T04:20:21;99826.53;;;10.62;74.59
78986;BME280;68384;55.750;48.746;2023-09-30T04:22:51;99840.97;;;10.79;74.17
78986;BME280;68384;55.750;48.746;2023-09-30T04:25:18;99838.69;;;10.89;73.72
78986;BME280;68384;55.750;48.746;2023-09-30T04:27:46;99847.66;;;10.99;73.20
78986;BME280;68384;55.750;48.746;2023-09-30T04:30:17;99835.72;;;11.06;72.97
78986;BME280;68384;55.750;48.746;2023-09-30T04:32:45;99842.97;;;11.16;72.74
78986;BME280;68384;55.750;48.746;2023-09-30T04:35:13;99841.41;;;11.22;72.72
78986;BME280;68384;55.750;48.746;2023-09-30T04:37:40;99839.00;;;11.28;72.17
78986;BME280;68384;55.750;48.746;2023-09-30T04:40:09;99840.06;;;11.35;72.02
78986;BME280;68384;55.750;48.746;2023-09-30T04:42:43;99848.09;;;11.42;71.72
78986;BME280;68384;55.750;48.746;2023-09-30T04:45:17;99842.13;;;11.46;71.52
78986;BME280;68384;55.750;48.746;2023-09-30T04:47:48;99840.63;;;11.55;71.25
78986;BME280;68384;55.750;48.746;2023-09-30T04:50:18;99843.41;;;11.61;71.02
78986;BME280;68384;55.750;48.746;2023-09-30T04:52:51;99838.41;;;11.68;70.87
78986;BME280;68384;55.750;48.746;2023-09-30T04:55:19;99842.25;;;11.81;70.51
78986;BME280;68384;55.750;48.746;2023-09-30T04:57:47;99838.97;;;11.88;70.13
78986;BME280;68384;55.750;48.746;2023-09-30T05:00:17;99849.63;;;11.98;69.42
78986;BME280;68384;55.750;48.746;2023-09-30T05:02:45;99843.91;;;12.09;69.18
78986;BME280;68384;55.750;48.746;2023-09-30T05:05:13;99848.44;;;12.17;69.04
78986;BME280;68384;55.750;48.746;2023-09-30T05:07:42;99846.97;;;12.27;68.17
78986;BME280;68384;55.750;48.746;2023-09-30T05:10:11;99848.09;;;12.38;68.46
78986;BME280;68384;55.750;48.746;2023-09-30T05:12:42;99846.56;;;12.46;67.88
78986;BME280;68384;55.750;48.746;2023-09-30T05:15:15;99850.31;;;12.57;67.67
78986;BME280;68384;55.750;48.746;2023-09-30T05:17:43;99860.00;;;12.64;67.10
78986;BME280;68384;55.750;48.746;2023-09-30T05:20:12;99861.06;;;12.72;66.78
78986;BME280;68384;55.750;48.746;2023-09-30T05:22:40;99860.25;;;12.75;66.27
78986;BME280;68384;55.750;48.746;2023-09-30T05:25:09;99864.63;;;12.76;66.09
78986;BME280;68384;55.750;48.746;2023-09-30T05:27:37;99866.72;;;12.90;66.09
78986;BME280;68384;55.750;48.746;2023-09-30T05:30:05;99854.78;;;13.00;65.73
78986;BME280;68384;55.750;48.746;2023-09-30T05:32:33;99864.63;;;13.13;64.83
78986;BME280;68384;55.750;48.746;2023-09-30T05:35:01;99856.19;;;13.23;64.61
78986;BME280;68384;55.750;48.746;2023-09-30T05:37:31;99861.69;;;13.35;64.21
78986;BME280;68384;55.750;48.746;2023-09-30T05:39:58;99872.97;;;13.34;63.42
78986;BME280;68384;55.750;48.746;2023-09-30T05:42:25;99862.50;;;12.95;64.32
78986;BME280;68384;55.750;48.746;2023-09-30T05:44:53;99863.72;;;12.74;65.27
78986;BME280;68384;55.750;48.746;2023-09-30T05:47:20;99858.38;;;12.68;65.65
78986;BME280;68384;55.750;48.746;2023-09-30T05:49:47;99857.66;;;12.73;65.66
78986;BME280;68384;55.750;48.746;2023-09-30T05:52:15;99855.28;;;12.84;65.36
78986;BME280;68384;55.750;48.746;2023-09-30T05:54:42;99854.72;;;12.97;65.07
78986;BME280;68384;55.750;48.746;2023-09-30T05:57:10;99854.84;;;13.01;64.92
78986;BME280;68384;55.750;48.746;2023-09-30T05:59:37;99858.84;;;12.87;65.27
78986;BME280;68384;55.750;48.746;2023-09-30T06:02:04;99856.28;;;12.89;65.39
78986;BME280;68384;55.750;48.746;2023-09-30T06:04:32;99856.44;;;12.96;65.48
78986;BME280;68384;55.750;48.746;2023-09-30T06:07:00;99860.22;;;13.09;65.12
78986;BME280;68384;55.750;48.746;2023-09-30T06:09:27;99850.53;;;13.03;65.49
78986;BME280;68384;55.750;48.746;2023-09-30T06:11:57;99853.16;;;13.05;64.90
78986;BME280;68384;55.750;48.746;2023-09-30T06:14:25;99849.66;;;13.03;64.99
78986;BME280;68384;55.750;48.746;2023-09-30T06:16:55;99852.25;;;13.03;65.12
78986;BME280;68384;55.750;48.746;2023-09-30T06:19:22;99849.97;;;13.16;65.36
78986;BME280;68384;55.750;48.746;2023-09-30T06:21:50;99856.22;;;13.24;64.58
78986;BME280;68384;55.750;48.746;2023-09-30T06:24:18;99847.75;;;13.33;64.33
78986;BME280;68384;55.750;48.746;2023-09-30T06:26:48;99848.81;;;13.41;64.06
78986;BME280;68384;55.750;48.746;2023-09-30T06:29:15;99848.06;;;13.48;63.62
78986;BME280;68384;55.750;48.746;2023-09-30T06:31:43;99846.41;;;13.52;63.94
78986;BME280;68384;55.750;48.746;2023-09-30T06:34:10;99837.03;;;13.60;63.42
78986;BME280;68384;55.750;48.746;2023-09-30T06:36:38;99833.59;;;13.61;63.30
78986;BME280;68384;55.750;48.746;2023-09-30T06:39:05;99837.16;;;13.66;62.44
78986;BME280;68384;55.750;48.746;2023-09-30T06:41:32;99840.72;;;13.69;61.97
78986;BME280;68384;55.750;48.746;2023-09-30T06:44:01;99838.25;;;13.78;62.34
78986;BME280;68384;55.750;48.746;2023-09-30T06:46:28;99841.66;;;13.74;61.19
78986;BME280;68384;55.750;48.746;2023-09-30T06:48:56;99841.94;;;13.90;61.68
78986;BME280;68384;55.750;48.746;2023-09-30T06:51:24;99841.81;;;13.83;58.94
78986;BME280;68384;55.750;48.746;2023-09-30T06:53:53;99835.78;;;13.84;56.92
78986;BME280;68384;55.750;48.746;2023-09-30T06:56:20;99839.25;;;13.85;55.60
78986;BME280;68384;55.750;48.746;2023-09-30T06:58:48;99835.84;;;13.89;54.95
78986;BME280;68384;55.750;48.746;2023-09-30T07:01:15;99836.84;;;13.96;52.98
78986;BME280;68384;55.750;48.746;2023-09-30T07:03:45;99840.53;;;14.07;54.80
78986;BME280;68384;55.750;48.746;2023-09-30T07:06:21;99839.06;;;14.21;54.16
78986;BME280;68384;55.750;48.746;2023-09-30T07:08:49;99834.13;;;14.37;52.63
78986;BME280;68384;55.750;48.746;2023-09-30T07:11:16;99838.72;;;14.49;52.12
78986;BME280;68384;55.750;48.746;2023-09-30T07:13:43;99843.19;;;14.56;50.96
78986;BME280;68384;55.750;48.746;2023-09-30T07:16:11;99839.84;;;14.66;50.93
78986;BME280;68384;55.750;48.746;2023-09-30T07:18:38;99838.34;;;14.80;50.76
78986;BME280;68384;55.750;48.746;2023-09-30T07:21:05;99848.94;;;14.89;50.78
78986;BME280;68384;55.750;48.746;2023-09-30T07:23:33;99848.19;;;15.01;50.79
78986;BME280;68384;55.750;48.746;2023-09-30T07:26:00;99851.00;;;15.13;50.98
78986;BME280;68384;55.750;48.746;2023-09-30T07:28:27;99844.19;;;15.24;51.28
78986;BME280;68384;55.750;48.746;2023-09-30T07:30:55;99847.88;;;15.40;51.63
78986;BME280;68384;55.750;48.746;2023-09-30T07:33:22;99844.47;;;15.44;52.82
78986;BME280;68384;55.750;48.746;2023-09-30T07:35:50;99840.81;;;15.33;53.12
78986;BME280;68384;55.750;48.746;2023-09-30T07:38:17;99845.00;;;15.20;55.42
78986;BME280;68384;55.750;48.746;2023-09-30T07:40:44;99844.66;;;14.96;55.69
78986;BME280;68384;55.750;48.746;2023-09-30T07:43:12;99842.88;;;14.93;56.48
78986;BME280;68384;55.750;48.746;2023-09-30T07:45:39;99849.72;;;14.85;56.27
78986;BME280;68384;55.750;48.746;2023-09-30T07:48:07;99841.88;;;14.85;55.69
78986;BME280;68384;55.750;48.746;2023-09-30T07:50:36;99850.50;;;14.80;54.78
78986;BME280;68384;55.750;48.746;2023-09-30T07:53:05;99842.66;;;14.78;55.46
78986;BME280;68384;55.750;48.746;2023-09-30T07:55:33;99840.00;;;14.75;54.53
78986;BME280;68384;55.750;48.746;2023-09-30T07:58:00;99833.63;;;14.57;54.53
78986;BME280;68384;55.750;48.746;2023-09-30T08:00:28;99841.13;;;14.40;54.11
78986;BME280;68384;55.750;48.746;2023-09-30T08:02:55;99844.00;;;14.54;53.92
78986;BME280;68384;55.750;48.746;2023-09-30T08:05:22;99847.56;;;14.60;53.61
78986;BME280;68384;55.750;48.746;2023-09-30T08:07:50;99843.41;;;14.71;52.70
78986;BME280;68384;55.750;48.746;2023-09-30T08:10:17;99837.50;;;14.83;52.40
78986;BME280;68384;55.750;48.746;2023-09-30T08:12:44;99842.88;;;14.92;52.16
78986;BME280;68384;55.750;48.746;2023-09-30T08:15:15;99841.28;;;15.03;51.45
78986;BME280;68384;55.750;48.746;2023-09-30T08:17:44;99841.50;;;15.18;51.49
78986;BME280;68384;55.750;48.746;2023-09-30T08:20:11;99845.97;;;15.27;51.15
78986;BME280;68384;55.750;48.746;2023-09-30T08:22:40;99842.50;;;15.28;50.49
78986;BME280;68384;55.750;48.746;2023-09-30T08:25:08;99847.75;;;15.29;49.54
78986;BME280;68384;55.750;48.746;2023-09-30T08:27:36;99843.50;;;15.36;49.13
78986;BME280;68384;55.750;48.746;2023-09-30T08:30:06;99845.34;;;15.46;49.44
78986;BME280;68384;55.750;48.746;2023-09-30T08:32:35;99841.22;;;15.60;49.37
78986;BME280;68384;55.750;48.746;2023-09-30T08:35:04;99836.16;;;15.75;48.76
78986;BME280;68384;55.750;48.746;2023-09-30T08:37:31;99837.19;;;15.89;49.17
78986;BME280;68384;55.750;48.746;2023-09-30T08:40:00;99834.50;;;15.80;48.76
78986;BME280;68384;55.750;48.746;2023-09-30T08:42:32;99835.97;;;15.60;47.62
78986;BME280;68384;55.750;48.746;2023-09-30T08:45:04;99837.75;;;15.61;47.80
78986;BME280;68384;55.750;48.746;2023-09-30T08:47:34;99835.06;;;15.55;47.87
78986;BME280;68384;55.750;48.746;2023-09-30T08:50:06;99827.13;;;15.52;48.09
78986;BME280;68384;55.750;48.746;2023-09-30T08:52:40;99827.91;;;15.42;47.54
78986;BME280;68384;55.750;48.746;2023-09-30T08:55:10;99824.41;;;15.43;48.06
78986;BME280;68384;55.750;48.746;2023-09-30T08:57:40;99824.53;;;15.52;47.94
78986;BME280;68384;55.750;48.746;2023-09-30T09:04:41;99820.50;;;15.78;44.12
78986;BME280;68384;55.750;48.746;2023-09-30T09:07:09;99811.06;;;15.91;44.16
78986;BME280;68384;55.750;48.746;2023-09-30T09:09:36;99806.75;;;15.97;44.04
78986;BME280;68384;55.750;48.746;2023-09-30T09:12:04;99818.97;;;15.98;43.55
78986;BME280;68384;55.750;48.746;2023-09-30T09:14:39;99809.53;;;16.14;42.32
78986;BME280;68384;55.750;48.746;2023-09-30T09:22:04;99808.91;;;16.41;42.47
78986;BME280;68384;55.750;48.746;2023-09-30T09:24:37;99804.63;;;16.50;42.66
78986;BME280;68384;55.750;48.746;2023-09-30T09:27:11;99811.72;;;16.60;41.85
78986;BME280;68384;55.750;48.746;2023-09-30T09:29:40;99799.47;;;16.56;42.14
78986;BME280;68384;55.750;48.746;2023-09-30T09:32:09;99803.88;;;16.63;42.69
78986;BME280;68384;55.750;48.746;2023-09-30T09:34:36;99805.56;;;16.57;41.95
78986;BME280;68384;55.750;48.746;2023-09-30T09:37:14;99799.47;;;16.58;41.97
78986;BME280;68384;55.750;48.746;2023-09-30T09:39:50;99785.53;;;16.59;42.46
78986;BME280;68384;55.750;48.746;2023-09-30T09:42:29;99795.19;;;16.67;42.44
78986;BME280;68384;55.750;48.746;2023-09-30T09:45:03;99784.75;;;16.73;42.10
78986;BME280;68384;55.750;48.746;2023-09-30T09:47:32;99787.47;;;16.86;42.10
78986;BME280;68384;55.750;48.746;2023-09-30T09:54:32;99785.91;;;17.19;41.27
78986;BME280;68384;55.750;48.746;2023-09-30T09:57:01;99782.44;;;17.28;40.64
78986;BME280;68384;55.750;48.746;2023-09-30T09:59:32;99791.09;;;17.06;41.13
78986;BME280;68384;55.750;48.746;2023-09-30T10:01:59;99795.44;;;17.05;41.53
78986;BME280;68384;55.750;48.746;2023-09-30T10:04:27;99780.47;;;16.88;41.56
78986;BME280;68384;55.750;48.746;2023-09-30T10:06:56;99783.13;;;16.89;41.43
78986;BME280;68384;55.750;48.746;2023-09-30T10:09:24;99779.59;;;16.83;41.55
78986;BME280;68384;55.750;48.746;2023-09-30T10:12:03;99783.94;;;16.81;42.01
78986;BME280;68384;55.750;48.746;2023-09-30T10:14:31;99781.31;;;16.82;41.81
78986;BME280;68384;55.750;48.746;2023-09-30T10:17:03;99782.94;;;16.62;41.95
78986;BME280;68384;55.750;48.746;2023-09-30T10:19:31;99776.84;;;16.61;42.46
78986;BME280;68384;55.750;48.746;2023-09-30T10:24:51;99777.69;;;16.60;42.02
78986;BME280;68384;55.750;48.746;2023-09-30T10:40:58;99769.81;;;16.57;42.00
78986;BME280;68384;55.750;48.746;2023-09-30T10:43:32;99767.13;;;16.53;42.05
78986;BME280;68384;55.750;48.746;2023-09-30T10:46:01;99768.03;;;16.55;42.11
78986;BME280;68384;55.750;48.746;2023-09-30T10:50:59;99766.47;;;16.84;42.02
78986;BME280;68384;55.750;48.746;2023-09-30T10:53:28;99757.91;;;17.08;41.67
78986;BME280;68384;55.750;48.746;2023-09-30T10:56:00;99757.13;;;17.31;40.36
78986;BME280;68384;55.750;48.746;2023-09-30T10:58:51;99752.91;;;17.58;39.92
78986;BME280;68384;55.750;48.746;2023-09-30T11:01:23;99752.06;;;17.81;39.34
78986;BME280;68384;55.750;48.746;2023-09-30T11:03:58;99758.19;;;17.96;39.12
78986;BME280;68384;55.750;48.746;2023-09-30T11:06:31;99752.06;;;17.92;38.85
78986;BME280;68384;55.750;48.746;2023-09-30T11:09:00;99749.44;;;18.00;38.80
78986;BME280;68384;55.750;48.746;2023-09-30T11:11:41;99759.97;;;18.19;38.48
78986;BME280;68384;55.750;48.746;2023-09-30T11:14:29;99757.34;;;18.43;37.81
78986;BME280;68384;55.750;48.746;2023-09-30T11:16:59;99752.06;;;18.65;37.98
78986;BME280;68384;55.750;48.746;2023-09-30T11:19:36;99744.19;;;18.80;37.35
78986;BME280;68384;55.750;48.746;2023-09-30T11:22:09;99749.38;;;18.99;37.42
78986;BME280;68384;55.750;48.746;2023-09-30T11:24:36;99751.13;;;19.08;37.07
78986;BME280;68384;55.750;48.746;2023-09-30T11:27:04;99744.94;;;19.24;36.99
78986;BME280;68384;55.750;48.746;2023-09-30T11:29:32;99739.66;;;19.32;36.62
78986;BME280;68384;55.750;48.746;2023-09-30T11:32:00;99739.63;;;19.33;36.27
78986;BME280;68384;55.750;48.746;2023-09-30T11:34:34;99733.47;;;19.42;36.82
78986;BME280;68384;55.750;48.746;2023-09-30T11:37:02;99729.06;;;19.45;36.03
78986;BME280;68384;55.750;48.746;2023-09-30T11:39:30;99732.50;;;19.52;35.85
78986;BME280;68384;55.750;48.746;2023-09-30T11:41:58;99729.94;;;19.49;35.94
78986;BME280;68384;55.750;48.746;2023-09-30T11:44:25;99731.66;;;19.53;35.49
78986;BME280;68384;55.750;48.746;2023-09-30T11:46:58;99731.66;;;19.50;35.37
78986;BME280;68384;55.750;48.746;2023-09-30T11:52:00;99736.16;;;19.19;35.87
78986;BME280;68384;55.750;48.746;2023-09-30T11:54:39;99734.41;;;19.29;35.95
78986;BME280;68384;55.750;48.746;2023-09-30T11:57:13;99729.13;;;19.32;36.09
78986;BME280;68384;55.750;48.746;2023-09-30T11:59:44;99729.09;;;19.39;36.14
78986;BME280;68384;55.750;48.746;2023-09-30T12:02:13;99715.94;;;19.42;35.06
78986;BME280;68384;55.750;48.746;2023-09-30T12:04:50;99729.84;;;19.65;35.60
78986;BME280;68384;55.750;48.746;2023-09-30T12:07:17;99725.41;;;19.74;34.92
78986;BME280;68384;55.750;48.746;2023-09-30T12:09:45;99727.13;;;19.75;35.06
78986;BME280;68384;55.750;48.746;2023-09-30T12:12:12;99726.22;;;19.77;34.83
78986;BME280;68384;55.750;48.746;2023-09-30T12:14:42;99723.63;;;19.74;35.09
78986;BME280;68384;55.750;48.746;2023-09-30T12:17:09;99718.41;;;19.69;35.00
78986;BME280;68384;55.750;48.746;2023-09-30T12:19:42;99715.84;;;19.59;35.44
78986;BME280;68384;55.750;48.746;2023-09-30T12:22:10;99719.50;;;19.31;35.47
78986;BME280;68384;55.750;48.746;2023-09-30T12:24:39;99716.06;;;19.00;36.36
78986;BME280;68384;55.750;48.746;2023-09-30T12:27:08;99710.91;;;18.83;37.20
78986;BME280;68384;55.750;48.746;2023-09-30T12:29:35;99715.31;;;18.71;37.07
78986;BME280;68384;55.750;48.746;2023-09-30T12:32:06;99696.13;;;18.41;37.23
78986;BME280;68384;55.750;48.746;2023-09-30T12:34:34;99709.22;;;18.19;38.20
78986;BME280;68384;55.750;48.746;2023-09-30T12:37:03;99703.97;;;17.82;38.79
78986;BME280;68384;55.750;48.746;2023-09-30T12:39:31;99702.22;;;17.60;39.22
78986;BME280;68384;55.750;48.746;2023-09-30T12:42:01;99711.78;;;17.51;39.45
78986;BME280;68384;55.750;48.746;2023-09-30T12:44:28;99705.59;;;17.36;40.12
78986;BME280;68384;55.750;48.746;2023-09-30T12:46:56;99707.31;;;17.21;40.38
78986;BME280;68384;55.750;48.746;2023-09-30T12:49:23;99707.28;;;17.13;40.37
78986;BME280;68384;55.750;48.746;2023-09-30T12:51:50;99706.38;;;17.05;40.83
78986;BME280;68384;55.750;48.746;2023-09-30T12:54:18;99708.06;;;16.96;41.38
78986;BME280;68384;55.750;48.746;2023-09-30T12:56:46;99697.53;;;16.82;41.41
78986;BME280;68384;55.750;48.746;2023-09-30T12:59:15;99697.50;;;16.73;42.11
78986;BME280;68384;55.750;48.746;2023-09-30T13:01:44;99696.56;;;16.62;42.27
78986;BME280;68384;55.750;48.746;2023-09-30T13:04:11;99699.94;;;16.50;42.50
78986;BME280;68384;55.750;48.746;2023-09-30T13:06:39;99698.13;;;16.39;42.63
78986;BME280;68384;55.750;48.746;2023-09-30T13:09:08;99694.59;;;16.31;42.56
78986;BME280;68384;55.750;48.746;2023-09-30T13:11:36;99700.66;;;16.24;42.77
78986;BME280;68384;55.750;48.746;2023-09-30T13:14:04;99700.56;;;16.14;43.34
78986;BME280;68384;55.750;48.746;2023-09-30T13:16:32;99693.53;;;16.04;43.09
78986;BME280;68384;55.750;48.746;2023-09-30T13:19:00;99688.28;;;16.01;43.20
78986;BME280;68384;55.750;48.746;2023-09-30T13:21:29;99696.06;;;15.95;43.80
78986;BME280;68384;55.750;48.746;2023-09-30T13:23:58;99689.91;;;15.87;43.90
78986;BME280;68384;55.750;48.746;2023-09-30T13:26:26;99691.53;;;15.78;44.03
78986;BME280;68384;55.750;48.746;2023-09-30T13:28:54;99687.06;;;15.63;44.52
78986;BME280;68384;55.750;48.746;2023-09-30T13:31:21;99690.34;;;15.48;45.28
78986;BME280;68384;55.750;48.746;2023-09-30T13:33:49;99691.97;;;15.37;45.62
78986;BME280;68384;55.750;48.746;2023-09-30T13:36:16;99686.66;;;15.25;46.00
78986;BME280;68384;55.750;48.746;2023-09-30T13:38:44;99683.03;;;15.14;46.44
78986;BME280;68384;55.750;48.746;2023-09-30T13:41:11;99682.03;;;15.05;46.69